Time;durP1;ratioP1;P1;durP2;ratioP2;P2;SDS_P1;SDS_P2;PMS_P1;PMS_P2;Temp;Humidity;BMP_temperature;BMP_pressure;BME280_temperature;BME280_humidity;BME280_pressure;Samples;Min_cycle;Max_cycle;Signal;HPM_P1;HPM_P2
2020/12/24 00:00:04;;;;;;;2.08;1.48;;;10.20;47.00;;;;;;6276077;22;20011;-78
2020/12/24 00:02:31;;;;;;;2.95;1.67;;;10.10;46.50;;;;;;6280383;22;20409;-78
2020/12/24 00:04:58;;;;;;;3.83;1.88;;;10.00;47.10;;;;;;6247632;22;19999;-74
2020/12/24 00:07:25;;;;;;;8.45;1.92;;;10.00;47.00;;;;;;6276591;22;20000;-76
2020/12/24 00:09:52;;;;;;;2.65;1.25;;;9.90;47.00;;;;;;6275073;22;20000;-72
2020/12/24 00:12:18;;;;;;;3.63;1.50;;;9.90;47.10;;;;;;6275917;22;20028;-73
2020/12/24 00:14:45;;;;;;;6.43;1.50;;;9.80;47.10;;;;;;6277661;22;19999;-74
2020/12/24 00:17:12;;;;;;;3.08;1.92;;;9.80;46.90;;;;;;6277154;22;19999;-74
2020/12/24 00:19:39;;;;;;;2.88;1.63;;;9.70;47.30;;;;;;6276582;22;20384;-74
2020/12/24 00:22:06;;;;;;;2.80;1.52;;;9.70;47.30;;;;;;6273962;22;20008;-73
2020/12/24 00:24:33;;;;;;;2.38;1.48;;;9.60;47.40;;;;;;6274599;22;20000;-71
2020/12/24 00:27:01;;;;;;;2.85;1.30;;;9.60;47.60;;;;;;6275529;22;19996;-75
2020/12/24 00:29:28;;;;;;;3.97;1.58;;;9.50;47.60;;;;;;6275570;22;20456;-71
2020/12/24 00:31:54;;;;;;;1.75;1.13;;;9.50;47.70;;;;;;6277506;22;19991;-72
2020/12/24 00:34:21;;;;;;;3.97;1.27;;;9.50;47.40;;;;;;6274260;22;20007;-71
2020/12/24 00:36:48;;;;;;;2.38;1.48;;;9.40;47.30;;;;;;6276576;22;20002;-75
2020/12/24 00:39:15;;;;;;;2.88;1.40;;;9.40;47.30;;;;;;6276119;22;20026;-73
2020/12/24 00:41:43;;;;;;;2.15;1.20;;;9.30;47.30;;;;;;6277054;22;20091;-74
2020/12/24 00:44:10;;;;;;;2.05;1.30;;;9.30;47.10;;;;;;6278530;22;20321;-74
2020/12/24 00:46:36;;;;;;;5.47;1.40;;;9.30;47.70;;;;;;6276866;22;20011;-73
2020/12/24 00:49:03;;;;;;;2.70;1.40;;;9.30;47.00;;;;;;6275760;22;20015;-74
2020/12/24 00:51:30;;;;;;;4.15;1.50;;;9.30;47.10;;;;;;6278052;22;19992;-74
2020/12/24 00:53:57;;;;;;;2.35;1.00;;;9.20;47.20;;;;;;6276230;22;20002;-74
2020/12/24 00:56:24;;;;;;;3.90;0.98;;;9.30;46.90;;;;;;6275987;22;20007;-72
2020/12/24 00:58:51;;;;;;;1.08;0.75;;;9.20;46.70;;;;;;6276493;22;20003;-71
2020/12/24 01:01:18;;;;;;;2.63;1.55;;;9.30;46.60;;;;;;6280744;22;19998;-71
2020/12/24 01:03:45;;;;;;;4.35;1.20;;;9.30;46.80;;;;;;6276794;22;19996;-72
2020/12/24 01:06:12;;;;;;;2.80;1.20;;;9.30;46.10;;;;;;6276456;22;19991;-73
2020/12/24 01:08:39;;;;;;;3.60;1.15;;;9.30;46.00;;;;;;6275922;22;20010;-71
2020/12/24 01:11:06;;;;;;;3.55;1.67;;;9.30;45.80;;;;;;6248254;22;19992;-71
2020/12/24 01:13:33;;;;;;;4.70;1.10;;;9.30;45.90;;;;;;6274889;22;19995;-73
2020/12/24 01:16:00;;;;;;;3.42;1.23;;;9.30;45.90;;;;;;6279670;22;20321;-72
2020/12/24 01:18:26;;;;;;;2.20;1.17;;;9.40;45.10;;;;;;6278326;22;19996;-71
2020/12/24 01:20:53;;;;;;;1.65;1.00;;;9.40;44.70;;;;;;6275616;22;20325;-71
2020/12/24 01:23:20;;;;;;;2.45;1.02;;;9.50;44.50;;;;;;6275261;22;20613;-74
2020/12/24 01:25:47;;;;;;;2.88;1.02;;;9.40;44.60;;;;;;6245734;22;20007;-73
2020/12/24 01:28:14;;;;;;;3.65;1.92;;;9.50;44.00;;;;;;6276941;22;19996;-72
2020/12/24 01:30:41;;;;;;;4.38;1.48;;;9.50;44.00;;;;;;6273425;22;20000;-73
2020/12/24 01:33:08;;;;;;;18.55;10.65;;;9.60;43.90;;;;;;6273813;22;19996;-73
2020/12/24 01:35:35;;;;;;;9.45;5.15;;;9.50;43.80;;;;;;6277346;22;20000;-73
2020/12/24 01:38:02;;;;;;;1.77;1.25;;;9.60;44.10;;;;;;6276987;22;20003;-73
2020/12/24 01:40:29;;;;;;;1.63;1.23;;;9.70;43.50;;;;;;6275054;22;20004;-74
2020/12/24 01:42:56;;;;;;;3.17;1.45;;;9.70;43.00;;;;;;6274857;22;20003;-73
2020/12/24 01:45:22;;;;;;;2.92;1.52;;;9.70;43.20;;;;;;6276486;22;20018;-73
2020/12/24 01:47:49;;;;;;;2.13;1.38;;;9.70;43.30;;;;;;6247055;22;20337;-72
2020/12/24 01:50:16;;;;;;;4.28;1.00;;;9.80;42.60;;;;;;6275573;22;20012;-74
2020/12/24 01:52:48;;;;;;;2.55;1.15;;;9.80;42.00;;;;;;6275089;22;20324;-73
2020/12/24 01:55:15;;;;;;;2.45;1.23;;;9.80;42.50;;;;;;6278928;22;20000;-73
2020/12/24 01:57:42;;;;;;;4.30;1.52;;;9.80;42.10;;;;;;6277649;22;20413;-73
2020/12/24 02:00:11;;;;;;;2.72;1.80;;;9.90;41.60;;;;;;6277526;22;20000;-74
2020/12/24 02:02:38;;;;;;;6.50;1.73;;;9.90;42.00;;;;;;6275754;22;19992;-73
2020/12/24 02:05:06;;;;;;;2.05;1.50;;;9.90;41.60;;;;;;6274814;22;20734;-73
2020/12/24 02:07:33;;;;;;;8.77;6.38;;;10.00;41.70;;;;;;6273225;22;20015;-73
2020/12/24 02:10:00;;;;;;;3.58;2.25;;;10.00;41.40;;;;;;6276615;22;20007;-73
2020/12/24 02:12:27;;;;;;;14.75;6.00;;;10.10;41.20;;;;;;6277310;22;19999;-73
2020/12/24 02:14:54;;;;;;;4.68;3.10;;;10.00;41.50;;;;;;6275883;22;20448;-73
2020/12/24 02:17:21;;;;;;;5.80;3.92;;;10.00;41.50;;;;;;6277125;22;20429;-74
2020/12/24 02:19:48;;;;;;;5.05;3.55;;;10.00;41.70;;;;;;6275954;22;20429;-74
2020/12/24 02:22:15;;;;;;;11.35;7.68;;;10.10;41.70;;;;;;6275552;22;20023;-73
2020/12/24 02:24:45;;;;;;;11.20;7.50;;;10.00;41.80;;;;;;6275775;22;19995;-74
2020/12/24 02:27:12;;;;;;;11.05;6.18;;;10.00;41.70;;;;;;6274880;22;20480;-72
2020/12/24 02:29:40;;;;;;;18.70;12.50;;;10.00;41.50;;;;;;6274398;22;20073;-72
2020/12/24 02:32:07;;;;;;;14.35;9.13;;;10.00;41.70;;;;;;6276950;22;19996;-72
2020/12/24 02:34:34;;;;;;;8.35;3.70;;;10.00;41.80;;;;;;6273773;22;19999;-72
2020/12/24 02:37:01;;;;;;;3.30;1.95;;;10.10;42.00;;;;;;6275469;22;19996;-73
2020/12/24 02:39:28;;;;;;;8.18;2.92;;;10.10;41.80;;;;;;6273393;22;20008;-72
2020/12/24 02:41:55;;;;;;;3.05;1.75;;;10.10;41.90;;;;;;6274494;22;20043;-72
2020/12/24 02:44:22;;;;;;;4.03;1.50;;;10.20;42.20;;;;;;6273459;22;20003;-72
2020/12/24 02:46:49;;;;;;;2.13;1.50;;;10.10;42.40;;;;;;6278122;22;20019;-73
2020/12/24 02:49:16;;;;;;;5.05;3.30;;;10.30;41.90;;;;;;6274708;22;20019;-72
2020/12/24 02:51:43;;;;;;;5.13;2.25;;;10.30;41.80;;;;;;6276389;22;19991;-72
2020/12/24 02:54:10;;;;;;;3.92;2.33;;;10.30;42.00;;;;;;6275848;22;20429;-72
2020/12/24 02:56:36;;;;;;;2.28;1.67;;;10.30;41.90;;;;;;6248960;22;20003;-72
2020/12/24 02:59:03;;;;;;;7.80;3.58;;;10.30;41.70;;;;;;6277925;22;20286;-72
2020/12/24 03:01:31;;;;;;;2.47;1.60;;;10.20;42.40;;;;;;6248937;22;20329;-72
2020/12/24 03:03:58;;;;;;;2.78;1.23;;;10.30;42.10;;;;;;6276794;22;20440;-73
2020/12/24 03:06:25;;;;;;;1.83;1.20;;;10.30;42.30;;;;;;6276228;22;20007;-72
2020/12/24 03:08:52;;;;;;;3.40;1.95;;;10.20;42.30;;;;;;6279241;22;20008;-73
2020/12/24 03:11:19;;;;;;;2.33;1.65;;;10.20;42.70;;;;;;6279337;22;19996;-74
2020/12/24 03:13:45;;;;;;;3.17;1.60;;;10.10;43.00;;;;;;6277195;22;20003;-72
2020/12/24 03:16:14;;;;;;;7.82;2.10;;;10.10;43.00;;;;;;6277037;22;20317;-73
2020/12/24 03:18:41;;;;;;;3.08;1.60;;;10.00;43.40;;;;;;6276333;22;20047;-73
2020/12/24 03:21:09;;;;;;;1.88;1.15;;;10.00;43.40;;;;;;6280580;22;20010;-74
2020/12/24 03:23:39;;;;;;;3.40;1.67;;;9.90;44.00;;;;;;6279667;22;20007;-75
2020/12/24 03:26:06;;;;;;;5.68;1.70;;;9.90;44.00;;;;;;6279677;22;20197;-73
2020/12/24 03:28:33;;;;;;;3.63;1.50;;;9.80;44.40;;;;;;6252492;22;20333;-72
2020/12/24 03:31:00;;;;;;;2.67;1.65;;;9.80;44.60;;;;;;6277312;22;20003;-73
2020/12/24 03:33:27;;;;;;;2.15;1.58;;;9.70;45.10;;;;;;6276535;22;20313;-73
2020/12/24 03:35:53;;;;;;;3.22;1.98;;;9.70;45.20;;;;;;6275810;22;20498;-73
2020/12/24 03:38:20;;;;;;;1.92;1.33;;;9.70;45.40;;;;;;6278094;22;20321;-72
2020/12/24 03:40:47;;;;;;;3.72;1.80;;;9.70;45.40;;;;;;6274725;22;20414;-72
2020/12/24 03:43:14;;;;;;;9.05;4.07;;;9.70;45.80;;;;;;6277809;22;19996;-72
2020/12/24 03:45:41;;;;;;;5.30;2.83;;;9.60;46.10;;;;;;6279357;22;20006;-73
2020/12/24 03:48:08;;;;;;;2.10;1.63;;;9.60;46.40;;;;;;6275741;22;20003;-73
2020/12/24 03:50:35;;;;;;;3.83;1.95;;;9.60;46.60;;;;;;6274495;22;20008;-73
2020/12/24 03:53:01;;;;;;;2.53;1.95;;;9.50;47.00;;;;;;6277982;22;20003;-73
2020/12/24 03:55:28;;;;;;;5.03;2.05;;;9.40;47.30;;;;;;6276859;22;19999;-73
2020/12/24 03:57:55;;;;;;;3.00;1.80;;;9.40;47.40;;;;;;6276535;22;20003;-72
2020/12/24 04:00:22;;;;;;;6.13;2.17;;;9.40;47.80;;;;;;6275132;22;20007;-73
2020/12/24 04:02:49;;;;;;;8.25;3.42;;;9.30;48.30;;;;;;6276305;22;20295;-71
2020/12/24 04:05:16;;;;;;;7.47;2.70;;;9.20;48.50;;;;;;6275323;22;20425;-72
2020/12/24 04:07:43;;;;;;;6.38;2.28;;;9.20;48.70;;;;;;6277586;22;20321;-74
2020/12/24 04:10:09;;;;;;;3.75;2.20;;;9.20;49.00;;;;;;6276690;22;19991;-72
2020/12/24 04:12:36;;;;;;;5.95;2.75;;;9.10;49.30;;;;;;6275285;22;20000;-71
2020/12/24 04:15:03;;;;;;;4.00;2.30;;;9.10;49.80;;;;;;6250799;22;19996;-71
2020/12/24 04:17:30;;;;;;;4.97;2.83;;;9.10;50.00;;;;;;6277791;22;20007;-72
2020/12/24 04:19:57;;;;;;;6.82;2.65;;;9.00;50.20;;;;;;6275040;22;20014;-73
2020/12/24 04:22:24;;;;;;;2.92;2.38;;;9.00;50.50;;;;;;6276767;22;20007;-73
2020/12/24 04:24:51;;;;;;;8.23;2.85;;;9.00;50.80;;;;;;6277183;22;20004;-73
2020/12/24 04:27:18;;;;;;;4.68;2.95;;;9.00;51.10;;;;;;6276488;22;20418;-72
2020/12/24 04:29:45;;;;;;;4.38;2.92;;;8.90;51.30;;;;;;6275530;22;20326;-71
2020/12/24 04:32:12;;;;;;;6.32;3.38;;;8.90;51.50;;;;;;6276194;22;19996;-72
2020/12/24 04:34:38;;;;;;;4.30;3.08;;;8.90;51.70;;;;;;6278365;22;20004;-71
2020/12/24 04:37:05;;;;;;;5.78;3.05;;;8.90;52.00;;;;;;6274386;22;20007;-71
2020/12/24 04:39:32;;;;;;;5.13;3.25;;;8.80;52.20;;;;;;6275494;22;20000;-71
2020/12/24 04:42:00;;;;;;;5.32;3.35;;;8.90;52.60;;;;;;6279015;22;20417;-72
2020/12/24 04:44:28;;;;;;;4.88;3.15;;;8.80;52.90;;;;;;6277255;22;19998;-73
2020/12/24 04:46:56;;;;;;;7.35;3.60;;;8.80;53.00;;;;;;6275421;22;20000;-73
2020/12/24 04:49:26;;;;;;;7.40;3.10;;;8.80;53.40;;;;;;6276801;22;20007;-72
2020/12/24 04:51:53;;;;;;;7.50;3.67;;;8.80;53.40;;;;;;6276337;22;19992;-72
2020/12/24 04:54:20;;;;;;;4.88;3.30;;;8.80;53.70;;;;;;6273811;22;20008;-72
2020/12/24 04:56:46;;;;;;;4.97;3.42;;;8.80;54.00;;;;;;6276489;22;20310;-72
2020/12/24 04:59:13;;;;;;;5.32;3.25;;;8.80;54.40;;;;;;6272905;22;20000;-70
2020/12/24 05:01:41;;;;;;;7.03;3.45;;;8.80;54.60;;;;;;6273965;22;20004;-72
2020/12/24 05:04:08;;;;;;;6.35;3.30;;;8.70;55.10;;;;;;6277788;22;19996;-72
2020/12/24 05:06:34;;;;;;;4.93;3.17;;;8.70;55.00;;;;;;6277492;22;20003;-75
2020/12/24 05:09:01;;;;;;;7.18;3.90;;;8.70;55.30;;;;;;6273406;22;20495;-74
2020/12/24 05:11:33;;;;;;;6.03;4.03;;;8.70;55.90;;;;;;6275142;22;20007;-72
2020/12/24 05:14:17;;;;;;;6.93;3.78;;;8.60;56.60;;;;;;6273384;22;20006;-71
2020/12/24 05:17:08;;;;;;;10.30;4.18;;;8.50;56.90;;;;;;6274711;22;19992;-72
2020/12/24 05:19:47;;;;;;;7.40;4.25;;;8.50;57.10;;;;;;6253591;22;19995;-71
2020/12/24 05:22:23;;;;;;;7.82;3.75;;;8.50;57.30;;;;;;6272997;22;20016;-72
2020/12/24 05:24:50;;;;;;;9.13;3.72;;;8.50;57.80;;;;;;6275996;22;19991;-73
2020/12/24 05:27:22;;;;;;;8.88;3.97;;;8.50;58.10;;;;;;6273848;22;20003;-73
2020/12/24 05:29:51;;;;;;;6.47;4.10;;;8.40;58.40;;;;;;6276863;22;20012;-72
2020/12/24 05:32:32;;;;;;;5.22;3.47;;;8.30;58.80;;;;;;6272926;22;20325;-73
2020/12/24 05:35:06;;;;;;;7.93;4.72;;;8.30;59.10;;;;;;6273338;22;20003;-71
2020/12/24 05:37:33;;;;;;;6.22;3.97;;;8.30;59.30;;;;;;6277488;22;20007;-74
2020/12/24 05:40:24;;;;;;;5.80;4.00;;;8.30;59.60;;;;;;6279324;22;19995;-72
2020/12/24 05:43:01;;;;;;;5.72;3.90;;;8.30;59.80;;;;;;6273811;22;20298;-70
2020/12/24 05:45:33;;;;;;;6.00;3.58;;;8.30;60.40;;;;;;6275711;22;19995;-72
2020/12/24 05:48:13;;;;;;;7.78;5.28;;;8.30;60.40;;;;;;6275061;22;19995;-73
2020/12/24 05:50:43;;;;;;;8.25;4.50;;;8.20;61.40;;;;;;6275962;22;20019;-73
2020/12/24 05:53:11;;;;;;;6.85;4.32;;;8.00;62.50;;;;;;6276549;22;19999;-72
2020/12/24 05:55:40;;;;;;;7.78;5.00;;;8.00;62.60;;;;;;6247501;22;20467;-71
2020/12/24 05:58:08;;;;;;;7.90;5.18;;;7.90;63.10;;;;;;6276570;22;19999;-73
2020/12/24 06:00:42;;;;;;;6.35;4.40;;;7.90;64.00;;;;;;6277169;22;19996;-73
2020/12/24 06:03:15;;;;;;;6.40;4.75;;;7.80;64.20;;;;;;6276055;22;20015;-74
2020/12/24 06:05:52;;;;;;;7.88;5.43;;;7.80;64.70;;;;;;6272606;22;20003;-71
2020/12/24 06:08:29;;;;;;;8.18;5.43;;;7.80;65.20;;;;;;6276756;22;20015;-72
2020/12/24 06:11:04;;;;;;;10.15;5.28;;;7.80;65.70;;;;;;6275544;22;20004;-71
2020/12/24 06:13:54;;;;;;;11.80;5.90;;;7.80;66.60;;;;;;6277044;22;19995;-74
2020/12/24 06:16:29;;;;;;;11.38;5.57;;;7.70;67.30;;;;;;6277519;22;20444;-71
2020/12/24 06:19:00;;;;;;;8.82;5.78;;;7.70;67.90;;;;;;6277739;22;20436;-72
2020/12/24 06:21:33;;;;;;;8.40;5.70;;;7.70;68.60;;;;;;6277200;22;20027;-72
2020/12/24 06:24:01;;;;;;;8.25;5.00;;;7.60;69.00;;;;;;6279238;22;19992;-73
2020/12/24 06:26:41;;;;;;;9.70;5.95;;;7.60;69.40;;;;;;6278117;22;20429;-71
2020/12/24 06:29:09;;;;;;;7.07;5.13;;;7.60;69.00;;;;;;6274948;22;20007;-73
2020/12/24 06:31:41;;;;;;;9.98;6.00;;;7.50;69.50;;;;;;6278660;22;19996;-71
2020/12/24 06:34:25;;;;;;;;;;;7.50;69.90;;;;;;6275796;22;19999;-72
2020/12/24 06:36:53;;;;;;;8.77;5.65;;;7.50;69.80;;;;;;6275903;22;19906;-74
2020/12/24 06:39:48;;;;;;;6.97;5.18;;;7.50;69.40;;;;;;6276850;22;20008;-72
2020/12/24 06:42:39;;;;;;;11.35;4.90;;;7.50;69.40;;;;;;6275322;22;20449;-72
2020/12/24 06:45:09;;;;;;;8.85;5.07;;;7.50;69.00;;;;;;6275602;22;20007;-71
2020/12/24 06:47:37;;;;;;;7.10;4.32;;;7.60;67.70;;;;;;6278641;22;20014;-73
2020/12/24 06:50:36;;;;;;;7.72;5.05;;;7.70;67.30;;;;;;6276511;22;20008;-72
2020/12/24 06:53:21;;;;;;;9.50;5.10;;;7.70;68.20;;;;;;6275048;22;20333;-72
2020/12/24 06:56:16;;;;;;;10.65;5.50;;;7.60;68.10;;;;;;6276521;22;19995;-72
2020/12/24 06:58:52;;;;;;;7.05;5.05;;;7.70;68.60;;;;;;6277065;22;20002;-71
2020/12/24 07:01:30;;;;;;;9.00;5.75;;;7.60;70.50;;;;;;6277590;22;20007;-72
2020/12/24 07:03:59;;;;;;;9.38;5.93;;;7.50;71.50;;;;;;6276461;22;19991;-71
2020/12/24 07:06:41;;;;;;;9.15;6.50;;;7.40;72.30;;;;;;6275456;22;20436;-72
2020/12/24 07:09:20;;;;;;;9.45;6.15;;;7.40;73.40;;;;;;6274995;22;20042;-72
2020/12/24 07:11:55;;;;;;;10.50;6.22;;;7.30;74.30;;;;;;6247885;22;20003;-72
2020/12/24 07:14:29;;;;;;;12.07;6.47;;;7.20;75.80;;;;;;6276616;22;20004;-71
2020/12/24 07:16:57;;;;;;;12.45;8.05;;;7.20;76.80;;;;;;6276075;22;20000;-72
2020/12/24 07:19:30;;;;;;;10.52;6.95;;;7.20;77.80;;;;;;6278088;22;20006;-70
2020/12/24 07:21:57;;;;;;;13.23;7.30;;;7.10;78.70;;;;;;6276208;22;20007;-71
2020/12/24 07:24:29;;;;;;;10.73;6.75;;;7.10;80.00;;;;;;6276247;22;20006;-70
2020/12/24 07:27:02;;;;;;;13.23;7.85;;;7.00;81.20;;;;;;6277276;22;19992;-71
2020/12/24 07:29:30;;;;;;;11.25;8.10;;;7.00;82.20;;;;;;6276615;22;20011;-71
2020/12/24 07:32:02;;;;;;;14.52;7.70;;;6.90;83.30;;;;;;6276085;22;19999;-72
2020/12/24 07:34:36;;;;;;;13.05;8.45;;;6.80;84.20;;;;;;6277902;22;20298;-71
2020/12/24 07:37:04;;;;;;;13.27;8.55;;;6.80;85.30;;;;;;6276789;22;19992;-71
2020/12/24 07:39:32;;;;;;;11.38;8.13;;;6.70;86.30;;;;;;6276068;22;20010;-72
2020/12/24 07:41:59;;;;;;;13.73;8.63;;;6.60;87.50;;;;;;6278665;22;20004;-71
2020/12/24 07:44:26;;;;;;;12.55;8.95;;;6.50;89.10;;;;;;6274407;22;20011;-71
2020/12/24 07:47:01;;;;;;;17.83;9.23;;;6.40;90.20;;;;;;6274964;22;20426;-72
2020/12/24 07:49:28;;;;;;;12.95;8.20;;;6.50;90.80;;;;;;6247406;22;20007;-71
2020/12/24 07:51:59;;;;;;;14.90;9.40;;;6.50;91.20;;;;;;6280963;22;19992;-69
2020/12/24 07:54:30;;;;;;;16.42;8.63;;;6.50;91.50;;;;;;6274860;22;20004;-70
2020/12/24 07:56:57;;;;;;;15.85;9.35;;;6.60;91.60;;;;;;6248199;22;20352;-69
2020/12/24 07:59:25;;;;;;;14.18;9.02;;;6.60;91.80;;;;;;6274326;22;20433;-68
2020/12/24 08:02:02;;;;;;;14.98;9.10;;;6.60;92.30;;;;;;6274590;22;20665;-70
2020/12/24 08:04:29;;;;;;;15.60;9.68;;;6.50;93.10;;;;;;6277062;22;20000;-71
2020/12/24 08:06:55;;;;;;;17.92;10.63;;;6.40;93.80;;;;;;6275978;22;19992;-69
2020/12/24 08:09:22;;;;;;;18.42;9.80;;;6.40;94.50;;;;;;6276438;22;20015;-70
2020/12/24 08:11:54;;;;;;;17.33;10.82;;;6.30;95.10;;;;;;6276097;22;19996;-69
2020/12/24 08:14:22;;;;;;;;;;;6.20;95.90;;;;;;6278186;22;20019;-70
2020/12/24 08:16:49;;;;;;;13.93;8.68;;;6.20;96.50;;;;;;6277822;22;19906;-70
2020/12/24 08:19:43;;;;;;;18.60;11.32;;;6.20;97.20;;;;;;6279165;22;20011;-70
2020/12/24 08:22:46;;;;;;;20.45;11.38;;;6.10;97.70;;;;;;6277350;22;20011;-70
2020/12/24 08:25:16;;;;;;;23.27;11.40;;;6.00;98.60;;;;;;6274982;22;20439;-70
2020/12/24 08:27:45;;;;;;;17.73;9.45;;;6.10;99.30;;;;;;6275125;22;19999;-69
2020/12/24 08:30:15;;;;;;;21.58;12.70;;;6.10;99.50;;;;;;6277106;22;20008;-69
2020/12/24 08:32:42;;;;;;;22.92;13.50;;;6.00;99.90;;;;;;6276693;22;20007;-69
2020/12/24 08:35:14;;;;;;;26.88;13.85;;;6.00;99.90;;;;;;6276098;22;19999;-70
2020/12/24 08:37:41;;;;;;;28.80;14.90;;;6.00;99.90;;;;;;6279504;22;19999;-72
2020/12/24 08:40:25;;;;;;;24.63;14.02;;;6.00;99.90;;;;;;6279234;22;20006;-70
2020/12/24 08:43:04;;;;;;;23.13;14.02;;;5.90;99.90;;;;;;6275642;22;20320;-70
2020/12/24 08:45:31;;;;;;;22.17;12.15;;;5.90;99.90;;;;;;6276708;22;19999;-71
2020/12/24 08:47:57;;;;;;;25.65;15.18;;;5.90;99.90;;;;;;6275230;22;20004;-70
2020/12/24 08:50:36;;;;;;;28.02;14.75;;;5.90;99.90;;;;;;6278404;22;20008;-71
2020/12/24 08:53:06;;;;;;;23.58;14.55;;;5.90;99.90;;;;;;6277028;22;19992;-70
2020/12/24 08:55:33;;;;;;;23.27;14.40;;;5.90;99.90;;;;;;6276491;22;20015;-70
2020/12/24 08:58:03;;;;;;;25.02;13.60;;;5.80;99.90;;;;;;6275006;22;20006;-71
2020/12/24 09:00:30;;;;;;;26.17;15.65;;;5.70;99.90;;;;;;6277354;22;20002;-70
2020/12/24 09:02:57;;;;;;;31.27;17.30;;;5.70;99.90;;;;;;6275183;22;20344;-69
2020/12/24 09:05:25;;;;;;;28.10;16.20;;;5.70;99.90;;;;;;6277037;22;20444;-67
2020/12/24 09:07:52;;;;;;;33.50;17.67;;;5.70;99.90;;;;;;6248073;22;19995;-69
2020/12/24 09:10:27;;;;;;;29.48;17.13;;;5.70;99.90;;;;;;6276111;22;20042;-68
2020/12/24 09:13:02;;;;;;;30.08;16.50;;;5.80;99.90;;;;;;6274792;22;19996;-70
2020/12/24 09:15:29;;;;;;;30.27;15.38;;;5.80;99.90;;;;;;6276562;22;20439;-70
2020/12/24 09:17:59;;;;;;;32.47;16.67;;;5.80;99.90;;;;;;6276100;22;19999;-69
2020/12/24 09:20:27;;;;;;;30.13;16.15;;;5.80;99.90;;;;;;6275828;22;20000;-68
2020/12/24 09:23:02;;;;;;;28.40;15.68;;;5.80;99.90;;;;;;6277591;22;20464;-71
2020/12/24 09:25:45;;;;;;;31.70;17.70;;;5.60;99.90;;;;;;6277024;22;20321;-68
2020/12/24 09:28:26;;;;;;;30.20;17.52;;;5.50;99.90;;;;;;6274301;22;20011;-68
2020/12/24 09:30:57;;;;;;;30.80;16.10;;;5.50;99.90;;;;;;6275570;22;20023;-69
2020/12/24 09:33:25;;;;;;;29.63;17.40;;;5.20;99.90;;;;;;6272978;22;20000;-68
2020/12/24 09:35:52;;;;;;;34.33;18.83;;;5.20;99.90;;;;;;6276252;22;20236;-68
2020/12/24 09:38:19;;;;;;;34.25;17.38;;;5.30;99.90;;;;;;6273389;22;20333;-68
2020/12/24 09:40:46;;;;;;;39.60;20.92;;;5.10;99.90;;;;;;6276683;22;20325;-69
2020/12/24 09:43:14;;;;;;;39.20;19.75;;;4.90;99.90;;;;;;6275889;22;20000;-68
2020/12/24 09:45:41;;;;;;;41.95;22.23;;;4.80;99.90;;;;;;6272900;22;20000;-68
2020/12/24 09:48:08;;;;;;;38.90;20.50;;;4.80;99.90;;;;;;6273483;22;20007;-69
2020/12/24 09:50:35;;;;;;;30.15;15.88;;;4.70;99.90;;;;;;6273536;22;20019;-69
2020/12/24 09:53:02;;;;;;;46.47;23.13;;;4.70;99.90;;;;;;6273404;22;20003;-68
2020/12/24 09:55:29;;;;;;;44.60;21.98;;;4.50;99.90;;;;;;6275056;22;20004;-69
2020/12/24 09:57:56;;;;;;;44.17;22.23;;;4.50;99.90;;;;;;6276948;22;20007;-68
2020/12/24 10:00:24;;;;;;;40.25;18.13;;;4.30;99.90;;;;;;6246681;22;20063;-68
2020/12/24 10:02:51;;;;;;;45.00;23.35;;;4.30;99.90;;;;;;6276356;22;20003;-68
2020/12/24 10:05:18;;;;;;;53.75;25.90;;;4.10;99.90;;;;;;6275529;22;20003;-68
2020/12/24 10:07:45;;;;;;;52.35;24.27;;;4.10;99.90;;;;;;6274587;22;20294;-68
2020/12/24 10:10:12;;;;;;;48.47;21.95;;;4.10;99.90;;;;;;6221960;22;20008;-68
2020/12/24 10:12:39;;;;;;;51.85;25.88;;;4.10;99.90;;;;;;6276323;22;19992;-69
2020/12/24 10:15:05;;;;;;;47.97;24.95;;;4.00;99.90;;;;;;6275808;22;19996;-69
2020/12/24 10:17:34;;;;;;;59.28;27.05;;;3.90;99.90;;;;;;6273579;22;20000;-68
2020/12/24 10:20:01;;;;;;;59.15;26.42;;;3.60;99.90;;;;;;6274849;22;19996;-70
2020/12/24 10:22:28;;;;;;;60.00;26.20;;;3.50;99.90;;;;;;6275447;22;20023;-68
2020/12/24 10:24:55;;;;;;;78.88;33.42;;;3.30;99.90;;;;;;6275844;22;20014;-68
2020/12/24 10:27:22;;;;;;;86.05;32.35;;;3.30;99.90;;;;;;6275914;22;19999;-69
2020/12/24 10:29:48;;;;;;;82.22;30.05;;;3.30;99.90;;;;;;6275383;22;20000;-68
2020/12/24 10:32:16;;;;;;;122.10;37.15;;;3.30;99.90;;;;;;6274878;22;20596;-68
2020/12/24 10:34:42;;;;;;;112.30;41.55;;;3.30;99.90;;;;;;6274641;22;19996;-69
2020/12/24 10:37:10;;;;;;;105.45;37.42;;;3.30;99.90;;;;;;6276555;22;20449;-69
2020/12/24 10:39:37;;;;;;;106.50;39.97;;;3.30;99.90;;;;;;6276100;22;20349;-70
2020/12/24 10:42:04;;;;;;;104.70;40.45;;;3.30;99.90;;;;;;6275119;22;19992;-70
2020/12/24 10:44:31;;;;;;;109.05;38.60;;;3.30;99.90;;;;;;6274850;22;20003;-70
2020/12/24 10:46:58;;;;;;;121.63;39.58;;;3.40;99.90;;;;;;6274255;22;19996;-70
2020/12/24 10:49:26;;;;;;;89.97;34.83;;;3.30;99.90;;;;;;6273378;22;20020;-69
2020/12/24 10:51:53;;;;;;;107.38;40.65;;;3.30;99.90;;;;;;6274328;22;20306;-70
2020/12/24 10:54:20;;;;;;;100.93;38.55;;;3.40;99.90;;;;;;6277505;22;20003;-72
2020/12/24 10:56:48;;;;;;;88.22;35.85;;;3.40;99.90;;;;;;6274601;22;20004;-70
2020/12/24 10:59:16;;;;;;;98.60;33.72;;;3.40;99.90;;;;;;6272953;22;19996;-70
2020/12/24 11:01:49;;;;;;;110.88;42.58;;;3.40;99.90;;;;;;6273346;22;20011;-70
2020/12/24 11:04:17;;;;;;;104.55;36.42;;;3.40;99.90;;;;;;6273756;22;19996;-69
2020/12/24 11:06:45;;;;;;;103.00;36.17;;;3.40;99.90;;;;;;6276249;22;20314;-70
2020/12/24 11:09:14;;;;;;;77.50;30.02;;;3.40;99.90;;;;;;6278191;22;19992;-70
2020/12/24 11:11:44;;;;;;;112.57;36.00;;;3.40;99.90;;;;;;6250124;22;20012;-69
2020/12/24 11:14:11;;;;;;;104.97;37.08;;;3.40;99.90;;;;;;6276171;22;19996;-69
2020/12/24 11:16:38;;;;;;;100.25;38.67;;;3.40;99.90;;;;;;6277233;22;20003;-69
2020/12/24 11:19:06;;;;;;;107.55;39.58;;;3.40;99.90;;;;;;6276129;22;19996;-69
2020/12/24 11:21:33;;;;;;;97.25;36.78;;;3.50;99.90;;;;;;6278388;22;20007;-69
2020/12/24 11:24:05;;;;;;;106.45;39.35;;;3.50;99.90;;;;;;6274406;22;20019;-69
2020/12/24 11:26:39;;;;;;;83.43;33.78;;;3.50;99.90;;;;;;6276325;22;20000;-70
2020/12/24 11:29:08;;;;;;;108.75;42.00;;;3.50;99.90;;;;;;6278763;22;20290;-70
2020/12/24 11:31:37;;;;;;;82.80;32.83;;;3.50;99.90;;;;;;6277804;22;20015;-69
2020/12/24 11:34:05;;;;;;;96.45;37.63;;;3.50;99.90;;;;;;6277246;22;19992;-70
2020/12/24 11:36:33;;;;;;;89.10;33.38;;;3.50;99.90;;;;;;6274629;22;20004;-69
2020/12/24 11:39:00;;;;;;;96.30;39.30;;;3.50;99.90;;;;;;6275935;22;20489;-69
2020/12/24 11:41:29;;;;;;;112.25;43.58;;;3.50;99.90;;;;;;6278906;22;20003;-70
2020/12/24 11:43:57;;;;;;;90.03;35.90;;;3.60;99.90;;;;;;6278771;22;20310;-69
2020/12/24 11:46:25;;;;;;;103.32;40.70;;;3.50;99.90;;;;;;6277051;22;20321;-69
2020/12/24 11:48:54;;;;;;;75.40;30.80;;;3.50;99.90;;;;;;6276893;22;20003;-68
2020/12/24 11:51:22;;;;;;;89.53;36.17;;;3.50;99.90;;;;;;6278311;22;20274;-69
2020/12/24 11:53:50;;;;;;;85.88;33.13;;;3.50;99.90;;;;;;6248218;22;20448;-71
2020/12/24 11:56:19;;;;;;;95.63;37.38;;;3.50;99.90;;;;;;6277124;22;19999;-69
2020/12/24 11:58:48;;;;;;;81.60;35.28;;;3.60;99.90;;;;;;6276359;22;20354;-69
2020/12/24 12:01:23;;;;;;;84.65;34.35;;;3.60;99.90;;;;;;6248708;22;20011;-69
2020/12/24 12:03:51;;;;;;;82.53;36.50;;;3.60;99.90;;;;;;6278174;22;20003;-69
2020/12/24 12:06:19;;;;;;;86.40;36.28;;;3.60;99.90;;;;;;6276878;22;20007;-69
2020/12/24 12:08:47;;;;;;;82.60;33.30;;;3.60;99.90;;;;;;6276091;22;19996;-69
2020/12/24 12:11:15;;;;;;;87.97;34.10;;;3.60;99.90;;;;;;6275511;22;19995;-68
2020/12/24 12:13:42;;;;;;;97.80;36.13;;;3.60;99.90;;;;;;6274362;22;20004;-69
2020/12/24 12:16:10;;;;;;;103.03;39.83;;;3.50;99.90;;;;;;6276995;22;19995;-69
2020/12/24 12:18:38;;;;;;;103.70;40.80;;;3.50;99.90;;;;;;6246917;22;20452;-69
2020/12/24 12:21:05;;;;;;;107.75;41.65;;;3.50;99.90;;;;;;6275249;22;20019;-68
2020/12/24 12:23:32;;;;;;;93.10;37.20;;;3.50;99.90;;;;;;6280332;22;20045;-70
2020/12/24 12:26:02;;;;;;;109.00;40.15;;;3.60;99.90;;;;;;6279635;22;19996;-71
2020/12/24 12:28:29;;;;;;;94.43;34.08;;;3.50;99.90;;;;;;6248189;22;20003;-69
2020/12/24 12:30:56;;;;;;;110.68;37.42;;;3.50;99.90;;;;;;6278102;22;20003;-69
2020/12/24 12:33:23;;;;;;;89.30;37.00;;;3.50;99.90;;;;;;6276260;22;20051;-70
2020/12/24 12:35:49;;;;;;;106.97;41.30;;;3.50;99.90;;;;;;6275244;22;19996;-69
2020/12/24 12:38:16;;;;;;;111.07;42.35;;;3.50;99.90;;;;;;6277279;22;19996;-70
2020/12/24 12:40:43;;;;;;;101.68;38.67;;;3.60;99.90;;;;;;6273732;22;20337;-69
2020/12/24 12:43:10;;;;;;;118.45;43.80;;;3.60;99.90;;;;;;6276285;22;19992;-70
2020/12/24 12:45:38;;;;;;;108.80;41.17;;;3.50;99.90;;;;;;6275777;22;19996;-69
2020/12/24 12:48:04;;;;;;;111.50;37.30;;;3.50;99.90;;;;;;6275538;22;19995;-69
2020/12/24 12:50:31;;;;;;;106.75;39.50;;;3.50;99.90;;;;;;6278736;22;19996;-72
2020/12/24 12:52:58;;;;;;;132.50;47.70;;;3.50;99.90;;;;;;6278467;22;19996;-70
2020/12/24 12:55:25;;;;;;;122.85;46.38;;;3.60;99.90;;;;;;6275316;22;19999;-70